Latest Weather Observations for Marble Bar

IDW60801

Issued at 3:35 pm WST Thursday 18 September 2014 (issued every 30 minutes, with the page automatically refreshed every 10 minutes)

About weather observations | Map of weather stations | Latest weather observations for WA | Other Formats
Station Details ID: 004106 Name: MARBLE BAR Lat: -21.18 Lon: 119.75 Height: 182.3 m
Data from the previous 72 hours. | See also: Recent months at Marble Bar
Date/Time
WST
Temp
°C
App
Temp
°C
Dew
Point
Rel
Hum
%
Delta-T
°C
Wind Press
QNH
hPa
Press
MSL
hPa
Rain
since 9 am
mm
Dir
 
Spd
km/h
Gust
km/h
Spd
kts
Gust
kts
18/03:30pm 35.6 30.3 -3.7 8 18.5 SW 15 28 8 15 1013.1 1012.1 0.0
18/03:00pm 36.1 31.6 -3.3 8 18.7 WSW 11 20 6 11 1013.3 1012.3 0.0
18/02:30pm 35.9 31.7 -3.5 8 18.6 WSW 9 15 5 8 1013.4 1012.4 0.0
18/02:00pm 35.6 29.5 -3.7 8 18.5 WNW 19 30 10 16 1013.7 1012.7 0.0
18/01:30pm 35.4 29.7 -3.8 8 18.4 SW 17 24 9 13 1013.9 1012.9 0.0
18/01:00pm 35.8 29.2 -3.5 8 18.6 WSW 22 32 12 17 1014.4 1013.5 0.0
18/12:30pm 36.1 29.9 -3.3 8 18.7 WSW 20 28 11 15 1014.8 1013.9 0.0
18/12:00pm 34.9 27.6 -2.6 9 17.9 W 26 41 14 22 1015.2 1014.3 0.0
18/11:30am 34.9 30.5 -2.6 9 17.9 WNW 11 37 6 20 1015.9 1015.0 0.0
18/11:00am 33.9 29.4 -3.4 9 17.4 SSW 11 19 6 10 1016.2 1015.3 0.0
18/10:30am 33.5 28.9 -3.7 9 17.2 SW 11 24 6 13 1016.6 1015.7 0.0
18/10:00am 32.6 28.7 -1.7 11 16.3 S 9 17 5 9 1016.8 1015.9 0.0
18/09:30am 31.6 27.7 -1.2 12 15.6 S 9 15 5 8 1017.1 1016.2 0.0
18/09:00am 29.6 27.8 5.6 22 12.7 WNW 4 6 2 3 1017.3 1016.4 0.0
18/08:30am 27.4 26.4 5.6 25 11.4 CALM 0 0 0 0 1017.3 1016.4 0.0
18/08:00am 25.0 24.0 7.2 32 9.4 W 2 4 1 2 1017.1 1016.2 0.0
18/07:30am 22.4 22.0 8.1 40 7.6 CALM 0 0 0 0 1016.9 1016.0 0.0
18/07:00am 19.9 18.9 5.5 39 7.1 CALM 0 0 0 0 1016.8 1015.9 0.0
18/06:30am 17.1 16.0 5.1 45 5.8 CALM 0 0 0 0 1016.3 1015.4 0.0
18/06:00am 16.9 15.9 5.8 48 5.4 SE 0 2 0 1 1016.1 1015.2 0.0
18/05:30am 16.7 15.2 5.0 46 5.6 ESE 2 4 1 2 1015.7 1014.8 0.0
18/05:00am 17.3 15.6 5.9 47 5.6 SE 4 4 2 2 1015.5 1014.6 0.0
18/04:30am 17.7 15.9 3.6 39 6.6 SSE 2 4 1 2 1015.3 1014.4 0.0
18/04:00am 19.3 17.3 4.3 37 7.2 E 4 6 2 3 1015.0 1014.1 0.0
18/03:30am 19.9 17.6 2.7 32 8.1 S 4 6 2 3 1014.7 1013.8 0.0
18/03:00am 20.2 17.8 2.1 30 8.4 ESE 4 4 2 2 1014.7 1013.8 0.0
18/02:30am 22.9 19.9 0.7 23 10.3 S 6 9 3 5 1014.7 1013.8 0.0
18/02:00am 23.7 20.6 0.1 21 10.9 ESE 6 9 3 5 1014.7 1013.8 0.0
18/01:30am 23.4 20.3 -0.1 21 10.8 SSE 6 11 3 6 1014.6 1013.7 0.0
18/01:00am 25.4 22.6 -0.6 18 12.0 S 4 7 2 4 1014.6 1013.7 0.0
18/12:30am 26.5 23.0 -1.3 16 12.7 SSW 7 13 4 7 1014.8 1013.9 0.0
18/12:00am 28.0 24.0 -2.0 14 13.7 SSW 9 15 5 8 1015.0 1014.1 0.0
 
Date/Time
WST
Temp
°C
App
Temp
°C
Dew
Point
Rel
Hum
%
Delta-T
°C
Wind Press
QNH
hPa
Press
MSL
hPa
Rain
since 9 am
mm
Dir
 
Spd
km/h
Gust
km/h
Spd
kts
Gust
kts
17/11:30pm 27.9 23.7 -1.1 15 13.5 SSW 11 19 6 10 1015.2 1014.3 0.0
17/11:00pm 28.7 23.7 -1.4 14 14.0 SSW 15 22 8 12 1015.4 1014.5 0.0
17/10:30pm 29.0 24.0 -1.2 14 14.1 SW 15 24 8 13 1015.6 1014.7 0.0
17/10:00pm 28.9 24.4 -0.3 15 13.9 SW 13 26 7 14 1015.7 1014.8 0.0
17/09:30pm 29.1 24.6 -0.1 15 13.9 WSW 13 20 7 11 1015.6 1014.7 0.0
17/09:00pm 30.0 24.6 -1.4 13 14.7 WSW 17 24 9 13 1015.5 1014.6 0.0
17/08:30pm 30.6 25.5 -2.0 12 15.2 WSW 15 24 8 13 1015.0 1014.1 0.0
17/08:00pm 30.8 26.3 -3.0 11 15.5 W 11 19 6 10 1014.7 1013.8 0.0
17/07:30pm 31.4 26.2 -2.6 11 15.8 W 15 20 8 11 1014.2 1013.2 0.0
17/07:00pm 31.9 26.2 -3.5 10 16.3 W 17 28 9 15 1013.8 1012.8 0.0
17/06:30pm 32.1 28.1 -2.0 11 16.1 W 9 15 5 8 1013.1 1012.1 0.0
17/06:00pm 32.7 28.8 -1.6 11 16.4 WNW 9 17 5 9 1012.7 1011.7 0.0
17/05:30pm 34.1 29.8 -1.8 10 17.2 W 11 17 6 9 1012.3 1011.3 0.0
17/05:00pm 35.1 29.9 -2.5 9 18.0 W 15 24 8 13 1012.1 1011.1 0.0
17/04:30pm 35.4 29.3 -2.3 9 18.1 NNW 20 32 11 17 1011.7 1010.8 0.0
17/04:00pm 36.0 32.1 -1.8 9 18.4 N 9 17 5 9 1011.7 1010.8 0.0
17/03:30pm 36.4 31.7 -1.5 9 18.6 NNW 13 24 7 13 1011.6 1010.7 0.0
17/03:00pm 37.0 31.8 -2.7 8 19.2 WNW 15 22 8 12 1011.5 1010.6 0.0
17/02:30pm 36.9 31.5 -4.5 7 19.4 W 15 24 8 13 1011.6 1010.7 0.0
17/02:23pm 37.4 29.2 -4.2 7 19.7 NW 30 41 16 22 1011.4 1010.5 0.0
17/02:00pm 37.3 32.7 -4.2 7 19.6 NNW 11 20 6 11 1011.8 1010.9 0.0
17/01:30pm 36.2 31.9 -5.0 7 19.1 NNE 9 28 5 15 1012.2 1011.2 0.0
17/01:00pm 36.7 30.4 -1.3 9 18.7 NNW 22 35 12 19 1012.7 1011.7 0.0
17/12:30pm 36.6 31.6 -1.4 9 18.7 N 15 22 8 12 1012.9 1011.9 0.0
17/12:00pm 36.2 31.9 -1.7 9 18.5 N 11 22 6 12 1013.4 1012.4 0.0
17/11:30am 35.3 31.7 0.4 11 17.5 WSW 9 19 5 10 1013.8 1012.8 0.0
17/11:00am 35.5 31.7 1.8 12 17.3 W 11 17 6 9 1014.3 1013.4 0.0
17/10:30am 34.0 31.1 1.7 13 16.4 SW 6 13 3 7 1014.7 1013.8 0.0
17/10:00am 34.2 32.5 3.9 15 16.0 E 2 6 1 3 1014.8 1013.9 0.0
17/09:30am 32.5 30.8 7.4 21 13.9 E 6 11 3 6 1015.1 1014.2 0.0
17/09:00am 30.6 28.9 7.7 24 12.6 ENE 6 13 3 7 1015.0 1014.1 0.0
17/08:30am 28.3 26.7 8.1 28 11.1 SW 6 9 3 5 1014.6 1013.7 0.0
17/08:00am 25.7 25.4 8.7 34 9.3 CALM 0 4 0 2 1014.5 1013.6 0.0
17/07:30am 24.1 24.0 9.3 39 8.1 CALM 0 2 0 1 1014.2 1013.2 0.0
17/07:00am 20.9 20.7 8.9 46 6.4 CALM 0 0 0 0 1013.9 1012.9 0.0
17/06:30am 18.4 17.0 8.7 53 5.1 SSW 6 7 3 4 1013.5 1012.5 0.0
17/06:00am 16.3 16.1 9.0 62 3.8 CALM 0 0 0 0 1013.3 1012.3 0.0
17/05:30am 16.4 16.1 8.6 60 4.0 CALM 0 0 0 0 1012.9 1011.9 0.0
17/05:00am 16.7 16.1 8.9 60 4.1 S 2 4 1 2 1012.8 1011.8 0.0
17/04:30am 17.1 16.2 9.3 60 4.1 ESE 4 7 2 4 1012.5 1011.5 0.0
17/04:00am 17.4 16.4 8.8 57 4.5 SSE 4 6 2 3 1012.3 1011.3 0.0
17/03:30am 18.1 18.0 9.5 57 4.6 CALM 0 0 0 0 1012.3 1011.3 0.0
17/03:00am 18.7 17.8 9.2 54 5.0 E 4 6 2 3 1012.1 1011.1 0.0
17/02:30am 19.2 18.3 10.7 58 4.6 ESE 6 7 3 4 1012.2 1011.2 0.0
17/02:00am 19.5 18.9 9.1 51 5.5 ESE 2 4 1 2 1012.4 1011.4 0.0
17/01:30am 20.6 19.7 9.2 48 6.1 SSE 4 7 2 4 1012.4 1011.4 0.0
17/01:00am 21.1 19.6 6.6 39 7.4 ESE 4 9 2 5 1012.6 1011.6 0.0
17/12:30am 22.9 22.0 6.2 34 8.6 CALM 0 0 0 0 1012.7 1011.7 0.0
17/12:00am 24.8 21.8 6.1 30 9.7 N 11 15 6 8 1012.9 1011.9 0.0
 
Date/Time
WST
Temp
°C
App
Temp
°C
Dew
Point
Rel
Hum
%
Delta-T
°C
Wind Press
QNH
hPa
Press
MSL
hPa
Rain
since 9 am
mm
Dir
 
Spd
km/h
Gust
km/h
Spd
kts
Gust
kts
16/11:30pm 24.8 22.6 6.1 30 9.7 NE 7 13 4 7 1013.0 1012.0 0.0
16/11:00pm 25.4 24.4 7.5 32 9.5 NE 2 7 1 4 1013.0 1012.0 0.0
16/10:30pm 26.2 24.9 9.1 34 9.4 WNW 6 9 3 5 1013.0 1012.0 0.0
16/10:00pm 26.4 25.4 8.8 33 9.7 NNE 4 6 2 3 1012.9 1011.9 0.0
16/09:30pm 28.7 27.0 6.1 24 12.0 W 4 7 2 4 1012.7 1011.7 0.0
16/09:00pm 29.3 27.1 6.0 23 12.4 WSW 7 15 4 8 1012.5 1011.5 0.0
16/08:30pm 30.5 27.8 5.7 21 13.2 W 9 15 5 8 1012.4 1011.4 0.0
16/08:00pm 30.8 27.5 4.5 19 13.7 WSW 11 17 6 9 1012.1 1011.1 0.0
16/07:30pm 31.5 27.6 3.5 17 14.4 WNW 13 20 7 11 1011.7 1010.8 0.0
16/07:00pm 32.1 27.9 4.0 17 14.7 W 15 22 8 12 1011.3 1010.4 0.0
16/06:30pm 32.5 28.8 4.3 17 14.8 WNW 13 19 7 10 1010.8 1009.9 0.0
16/06:00pm 33.3 28.8 4.1 16 15.4 WNW 17 24 9 13 1010.3 1009.4 0.0
16/05:30pm 34.3 30.0 -1.7 10 17.4 NW 11 20 6 11 1010.0 1009.1 0.0
16/05:00pm 35.7 32.3 -2.0 9 18.3 N 6 7 3 4 1010.0 1009.1 0.0
16/04:30pm 36.6 32.0 -1.4 9 18.7 NW 13 20 7 11 1009.9 1009.0 0.0
16/04:00pm 36.9 33.4 -1.1 9 18.8 N 7 20 4 11 1009.8 1008.9 0.0
16/03:30pm 37.3 33.3 -2.4 8 19.3 NW 9 20 5 11 1009.6 1008.7 0.0
16/03:00pm 36.9 31.7 -2.7 8 19.1 N 15 26 8 14 1009.8 1008.9 0.0
16/02:30pm 36.7 31.9 -2.9 8 19.0 NNE 13 20 7 11 1009.9 1009.0 0.0
16/02:00pm 36.8 32.0 -2.8 8 19.1 NNE 13 20 7 11 1010.3 1009.4 0.0
16/01:30pm 36.9 30.9 -2.7 8 19.1 NW 19 43 10 23 1010.6 1009.7 0.0
16/01:00pm 36.8 32.1 -4.6 7 19.4 NNW 11 20 6 11 1010.9 1010.0 0.0
16/12:30pm 37.0 31.4 -2.7 8 19.2 NNW 17 26 9 14 1011.4 1010.5 0.0
16/12:00pm 37.3 32.5 -2.4 8 19.3 NNW 13 24 7 13 1011.7 1010.8 0.0
16/11:30am 36.2 33.2 2.3 12 17.6 N 7 15 4 8 1012.1 1011.1 0.0
16/11:00am 34.8 32.4 4.4 15 16.2 WSW 6 13 3 7 1012.6 1011.6 0.0
16/10:30am 33.5 32.3 8.2 21 14.2 W 4 7 2 4 1012.9 1011.9 0.0
16/10:00am 32.7 31.4 7.5 21 14.0 W 4 9 2 5 1013.2 1012.2 0.0
16/09:30am 31.1 30.7 11.0 29 11.7 NW 4 7 2 4 1013.5 1012.5 0.0
16/09:00am 29.3 29.0 11.4 33 10.4 NNW 4 7 2 4 1013.8 1012.8 0.0
16/08:30am 27.7 28.1 13.6 42 8.4 ENE 4 6 2 3 1013.8 1012.8 0.0
16/08:00am 26.0 27.1 13.5 46 7.4 CALM 0 2 0 1 1013.7 1012.7 0.0
16/07:30am 24.3 24.5 13.2 50 6.5 E 4 7 2 4 1013.5 1012.5 0.0
16/07:00am 20.7 22.1 14.4 67 3.7 CALM 0 0 0 0 1013.2 1012.2 0.0
16/06:30am 18.4 19.2 12.6 69 3.3 CALM 0 0 0 0 1012.9 1011.9 0.0
16/06:00am 17.6 17.9 12.1 70 3.1 SE 2 2 1 1 1012.6 1011.6 0.0
16/05:30am 18.1 18.6 12.8 71 3.0 SSE 2 6 1 3 1012.4 1011.4 0.0
16/05:00am 18.4 19.2 12.4 68 3.4 CALM 0 2 0 1 1012.3 1011.3 0.0
16/04:30am 19.1 20.2 13.5 70 3.2 CALM 0 0 0 0 1012.1 1011.1 0.0
16/04:00am 19.7 20.5 12.7 64 4.0 CALM 0 0 0 0 1011.8 1010.9 0.0
16/03:30am 20.8 22.1 14.0 65 4.0 CALM 0 0 0 0 1011.8 1010.9 0.0
16/03:00am 21.8 23.3 14.7 64 4.2 CALM 0 2 0 1 1011.7 1010.8 0.0
16/02:30am 22.9 24.5 15.0 61 4.7 CALM 0 0 0 0 1011.8 1010.9 0.0
16/02:00am 23.8 25.0 15.0 57 5.3 S 2 4 1 2 1012.1 1011.1 0.0
16/01:30am 23.9 24.6 14.6 56 5.6 S 4 9 2 5 1012.3 1011.3 0.0
16/01:00am 24.7 25.2 13.9 51 6.4 SSE 4 6 2 3 1012.4 1011.4 0.0
16/12:30am 24.8 24.4 12.4 46 7.2 S 6 7 3 4 1012.6 1011.6 0.0
16/12:00am 25.6 26.1 12.8 45 7.5 SSE 2 4 1 2 1012.8 1011.8 0.0
 
Date/Time
WST
Temp
°C
App
Temp
°C
Dew
Point
Rel
Hum
%
Delta-T
°C
Wind Press
QNH
hPa
Press
MSL
hPa
Rain
since 9 am
mm
Dir
 
Spd
km/h
Gust
km/h
Spd
kts
Gust
kts
15/11:30pm 26.3 25.9 12.4 42 8.1 N 6 7 3 4 1013.0 1012.0 0.0
15/11:00pm 27.4 25.8 10.2 34 9.7 WNW 9 13 5 7 1013.1 1012.1 0.0
15/10:30pm 27.8 26.2 8.6 30 10.6 N 7 11 4 6 1013.3 1012.3 0.0
15/10:00pm 27.1 26.0 8.5 31 10.2 NNW 4 7 2 4 1013.3 1012.3 0.0
15/09:30pm 26.8 25.4 8.7 32 9.9 NNE 6 7 3 4 1013.4 1012.4 0.0
15/09:00pm 26.5 25.7 8.0 31 10.0 WNW 2 4 1 2 1013.4 1012.4 0.0
15/08:30pm 27.9 26.6 7.7 28 11.0 NW 4 6 2 3 1013.4 1012.4 0.0
15/08:00pm 28.8 27.2 7.9 27 11.4 NNW 6 7 3 4 1013.3 1012.3 0.0
15/07:30pm 29.7 27.4 7.6 25 12.1 N 9 13 5 7 1013.0 1012.0 0.0
15/07:00pm 30.6 27.8 7.1 23 12.8 NW 11 22 6 12 1012.7 1011.7 0.0
15/06:30pm 31.4 27.4 5.0 19 14.0 NNW 15 22 8 12 1012.3 1011.3 0.0
15/06:00pm 32.3 27.8 4.2 17 14.7 NNW 17 24 9 13 1011.8 1010.9 0.0
15/05:30pm 33.6 28.0 3.4 15 15.7 NNW 22 32 12 17 1011.3 1010.4 0.0
15/05:00pm 35.3 29.4 3.8 14 16.7 N 24 35 13 19 1011.0 1010.1 0.0
15/04:30pm 36.7 31.0 2.7 12 17.8 NNW 22 33 12 18 1010.6 1009.7 0.0
15/04:00pm 37.6 33.6 -2.2 8 19.5 ENE 9 22 5 12 1010.2 1009.3 0.0

Other Formats:

Comma delimited format used in spreadsheet applications
http://www.bom.gov.au/fwo/IDW60801/IDW60801.95317.axf

JavaScript Object Notation format (JSON) in row-major order
http://www.bom.gov.au/fwo/IDW60801/IDW60801.95317.json